Impacts METAR Board INFO
IDs:

KBWI - Baltimore-Washington, MD, US

Updated at: 2114 UTC 16 Jan 2018
Potential Impact None Slight Moderate High
Time16/09Z 16/10Z 16/11Z 16/12Z 16/13Z 16/14Z 16/15Z 16/16Z 16/17Z 16/18Z 16/19Z 16/20Z 16/21Z
VIS8 7 6 4 2 0.5 1 5 7 10 10 10 10
CIG13 8 8 7 1 1 1 4 160 200 160 250 250
CoverOVCOVCOVCOVCOVXOVXOVCOVCBKNOVCBKNOVCOVC
FltCatMVFRIFRIFRIFRLIFRLIFRLIFRLIFRVFRVFRVFRVFRVFR
WX----BRBRBRFZFG-FZDZ BRBR----------
WDir11000140170150240210000060
WSpd3 0 0 4 3 3 3 3 0 3 0 0 4
WGst-- -- -- -- -- -- -- -- -- -- -- -- --
Raw hourly METARs
KBWI 160854Z 11003KT 8SM SCT008 OVC013 M02/M04 A3045 RMK AO2 SLP312 T10221039 56006
KBWI 161004Z 00000KT 7SM OVC008 M02/M04 A3046 RMK AO2 T10171039
KBWI 161054Z 00000KT 6SM BR OVC008 M02/M03 A3047 RMK AO2 SLP320 T10171028
KBWI 161154Z 14004KT 4SM BR OVC007 M02/M03 A3048 RMK AO2 SLP323 T10171028 11017 21022 53011
KBWI 161254Z 17003KT 2SM BR VV001 M02/M02 A3047 RMK AO2 SLP319 T10171022
KBWI 161354Z 15003KT 1/2SM R10/P6000FT FZFG VV001 M02/M02 A3048 RMK AO2 SLP324 T10171017
KBWI 161504Z 24003KT 1SM R10/P6000FT -FZDZ BR BKN001 OVC003 M01/M01 A3048 RMK AO2 P0000 I1000 T10111011
KBWI 161554Z 21003KT 5SM BR OVC004 00/M02 A3047 RMK AO2 FZDZE18 SLP319 P0000 I1000 T00001017
KBWI 161654Z 00000KT 7SM SCT009 SCT060 SCT090 BKN160 OVC200 01/M02 A3044 RMK AO2 SLP310 T00111022
KBWI 161754Z VRB03KT 10SM FEW011 SCT090 SCT160 OVC200 03/M03 A3041 RMK AO2 SLP298 60000 I6000 T00281028 10028 21017 58026
KBWI 161854Z 00000KT 10SM FEW011 FEW090 BKN160 BKN260 04/M03 A3038 RMK AO2 SLP290 T00391033
KBWI 161954Z 00000KT 10SM FEW015 FEW090 SCT160 OVC250 04/M03 A3036 RMK AO2 SLP283 T00391033
KBWI 162054Z 06004KT 10SM FEW090 SCT160 OVC250 04/M02 A3036 RMK AO2 SLP281 T00391017 56017